sensor_id;sensor_type;location;lat;lon;timestamp;P1;durP1;ratioP1;P2;durP2;ratioP2
66212;SDS011;53015;50.046;8.238;2023-03-01T00:01:22;8.48;;;4.68;;
66212;SDS011;53015;50.046;8.238;2023-03-01T00:03:49;12.38;;;5.22;;
66212;SDS011;53015;50.046;8.238;2023-03-01T00:06:14;10.77;;;4.95;;
66212;SDS011;53015;50.046;8.238;2023-03-01T00:08:40;8.35;;;4.63;;
66212;SDS011;53015;50.046;8.238;2023-03-01T00:11:07;8.60;;;4.72;;
66212;SDS011;53015;50.046;8.238;2023-03-01T00:13:35;9.45;;;5.38;;
66212;SDS011;53015;50.046;8.238;2023-03-01T00:16:02;11.50;;;5.32;;
66212;SDS011;53015;50.046;8.238;2023-03-01T00:18:29;7.82;;;4.63;;
66212;SDS011;53015;50.046;8.238;2023-03-01T00:20:55;10.98;;;5.00;;
66212;SDS011;53015;50.046;8.238;2023-03-01T00:23:22;7.72;;;5.00;;
66212;SDS011;53015;50.046;8.238;2023-03-01T00:25:48;10.50;;;5.03;;
66212;SDS011;53015;50.046;8.238;2023-03-01T00:28:14;7.75;;;4.65;;
66212;SDS011;53015;50.046;8.238;2023-03-01T00:30:40;11.75;;;5.13;;
66212;SDS011;53015;50.046;8.238;2023-03-01T00:33:06;9.82;;;5.22;;
66212;SDS011;53015;50.046;8.238;2023-03-01T00:35:32;7.75;;;4.97;;
66212;SDS011;53015;50.046;8.238;2023-03-01T00:37:58;10.63;;;5.43;;
66212;SDS011;53015;50.046;8.238;2023-03-01T00:40:24;9.52;;;5.43;;
66212;SDS011;53015;50.046;8.238;2023-03-01T00:42:49;11.82;;;5.60;;
66212;SDS011;53015;50.046;8.238;2023-03-01T00:45:15;11.40;;;5.35;;
66212;SDS011;53015;50.046;8.238;2023-03-01T00:47:41;9.45;;;5.50;;
66212;SDS011;53015;50.046;8.238;2023-03-01T00:50:07;11.40;;;4.95;;
66212;SDS011;53015;50.046;8.238;2023-03-01T00:52:35;10.15;;;5.90;;
66212;SDS011;53015;50.046;8.238;2023-03-01T00:55:00;7.88;;;5.25;;
66212;SDS011;53015;50.046;8.238;2023-03-01T00:57:26;8.57;;;5.60;;
66212;SDS011;53015;50.046;8.238;2023-03-01T00:59:51;10.60;;;5.70;;
66212;SDS011;53015;50.046;8.238;2023-03-01T01:02:17;9.13;;;6.10;;
66212;SDS011;53015;50.046;8.238;2023-03-01T01:04:43;9.00;;;5.30;;
66212;SDS011;53015;50.046;8.238;2023-03-01T01:07:09;8.48;;;5.22;;
66212;SDS011;53015;50.046;8.238;2023-03-01T01:09:35;9.75;;;5.95;;
66212;SDS011;53015;50.046;8.238;2023-03-01T01:12:00;10.65;;;5.95;;
66212;SDS011;53015;50.046;8.238;2023-03-01T01:14:26;11.23;;;6.38;;
66212;SDS011;53015;50.046;8.238;2023-03-01T01:16:51;9.88;;;5.32;;
66212;SDS011;53015;50.046;8.238;2023-03-01T01:19:17;8.02;;;5.68;;
66212;SDS011;53015;50.046;8.238;2023-03-01T01:21:43;9.93;;;5.55;;
66212;SDS011;53015;50.046;8.238;2023-03-01T01:24:08;11.18;;;6.20;;
66212;SDS011;53015;50.046;8.238;2023-03-01T01:26:35;13.27;;;6.07;;
66212;SDS011;53015;50.046;8.238;2023-03-01T01:29:01;9.80;;;6.13;;
66212;SDS011;53015;50.046;8.238;2023-03-01T01:31:27;9.90;;;5.90;;
66212;SDS011;53015;50.046;8.238;2023-03-01T01:33:54;10.80;;;6.53;;
66212;SDS011;53015;50.046;8.238;2023-03-01T01:36:20;9.75;;;5.82;;
66212;SDS011;53015;50.046;8.238;2023-03-01T01:38:46;9.23;;;5.63;;
66212;SDS011;53015;50.046;8.238;2023-03-01T01:41:12;9.77;;;5.80;;
66212;SDS011;53015;50.046;8.238;2023-03-01T01:43:39;12.77;;;6.38;;
66212;SDS011;53015;50.046;8.238;2023-03-01T01:46:06;9.90;;;6.05;;
66212;SDS011;53015;50.046;8.238;2023-03-01T01:48:41;14.23;;;6.13;;
66212;SDS011;53015;50.046;8.238;2023-03-01T01:51:09;12.13;;;6.78;;
66212;SDS011;53015;50.046;8.238;2023-03-01T01:53:38;10.73;;;5.65;;
66212;SDS011;53015;50.046;8.238;2023-03-01T01:56:05;13.57;;;6.00;;
66212;SDS011;53015;50.046;8.238;2023-03-01T01:58:33;10.25;;;5.47;;
66212;SDS011;53015;50.046;8.238;2023-03-01T02:01:00;10.70;;;5.93;;
66212;SDS011;53015;50.046;8.238;2023-03-01T02:03:26;11.13;;;5.55;;
66212;SDS011;53015;50.046;8.238;2023-03-01T02:05:56;9.88;;;5.80;;
66212;SDS011;53015;50.046;8.238;2023-03-01T02:08:26;11.73;;;5.97;;
66212;SDS011;53015;50.046;8.238;2023-03-01T02:10:53;11.50;;;5.75;;
66212;SDS011;53015;50.046;8.238;2023-03-01T02:13:20;11.10;;;6.15;;
66212;SDS011;53015;50.046;8.238;2023-03-01T02:15:46;10.98;;;5.90;;
66212;SDS011;53015;50.046;8.238;2023-03-01T02:18:14;8.23;;;5.40;;
66212;SDS011;53015;50.046;8.238;2023-03-01T02:20:44;10.10;;;5.53;;
66212;SDS011;53015;50.046;8.238;2023-03-01T02:23:17;8.85;;;5.50;;
66212;SDS011;53015;50.046;8.238;2023-03-01T02:25:45;10.18;;;5.53;;
66212;SDS011;53015;50.046;8.238;2023-03-01T02:28:23;10.32;;;5.85;;
66212;SDS011;53015;50.046;8.238;2023-03-01T02:30:54;10.18;;;6.13;;
66212;SDS011;53015;50.046;8.238;2023-03-01T02:33:19;13.95;;;6.38;;
66212;SDS011;53015;50.046;8.238;2023-03-01T02:35:45;10.50;;;5.50;;
66212;SDS011;53015;50.046;8.238;2023-03-01T02:38:11;10.82;;;5.85;;
66212;SDS011;53015;50.046;8.238;2023-03-01T02:40:36;11.70;;;6.47;;
66212;SDS011;53015;50.046;8.238;2023-03-01T02:43:04;11.27;;;6.43;;
66212;SDS011;53015;50.046;8.238;2023-03-01T02:45:33;12.88;;;5.90;;
66212;SDS011;53015;50.046;8.238;2023-03-01T02:47:59;11.98;;;5.97;;
66212;SDS011;53015;50.046;8.238;2023-03-01T02:50:29;11.77;;;6.40;;
66212;SDS011;53015;50.046;8.238;2023-03-01T02:53:11;12.90;;;6.50;;
66212;SDS011;53015;50.046;8.238;2023-03-01T02:55:41;10.50;;;5.53;;
66212;SDS011;53015;50.046;8.238;2023-03-01T02:58:06;10.88;;;5.93;;
66212;SDS011;53015;50.046;8.238;2023-03-01T03:00:34;11.73;;;6.43;;
66212;SDS011;53015;50.046;8.238;2023-03-01T03:03:02;10.77;;;6.82;;
66212;SDS011;53015;50.046;8.238;2023-03-01T03:05:28;10.68;;;6.25;;
66212;SDS011;53015;50.046;8.238;2023-03-01T03:07:55;12.20;;;6.78;;
66212;SDS011;53015;50.046;8.238;2023-03-01T03:10:22;10.23;;;6.00;;
66212;SDS011;53015;50.046;8.238;2023-03-01T03:12:50;13.50;;;6.60;;
66212;SDS011;53015;50.046;8.238;2023-03-01T03:15:17;10.32;;;6.50;;
66212;SDS011;53015;50.046;8.238;2023-03-01T03:17:44;11.82;;;7.20;;
66212;SDS011;53015;50.046;8.238;2023-03-01T03:20:10;11.70;;;6.57;;
66212;SDS011;53015;50.046;8.238;2023-03-01T03:22:37;13.50;;;6.90;;
66212;SDS011;53015;50.046;8.238;2023-03-01T03:25:03;11.63;;;6.72;;
66212;SDS011;53015;50.046;8.238;2023-03-01T03:27:29;10.77;;;6.82;;
66212;SDS011;53015;50.046;8.238;2023-03-01T03:29:54;12.95;;;6.70;;
66212;SDS011;53015;50.046;8.238;2023-03-01T03:32:20;12.18;;;6.38;;
66212;SDS011;53015;50.046;8.238;2023-03-01T03:34:46;13.43;;;7.15;;
66212;SDS011;53015;50.046;8.238;2023-03-01T03:37:12;12.57;;;6.25;;
66212;SDS011;53015;50.046;8.238;2023-03-01T03:39:37;13.13;;;6.72;;
66212;SDS011;53015;50.046;8.238;2023-03-01T03:42:03;11.82;;;6.85;;
66212;SDS011;53015;50.046;8.238;2023-03-01T03:44:29;11.27;;;6.93;;
66212;SDS011;53015;50.046;8.238;2023-03-01T03:46:54;13.80;;;6.95;;
66212;SDS011;53015;50.046;8.238;2023-03-01T03:49:20;12.35;;;6.40;;
66212;SDS011;53015;50.046;8.238;2023-03-01T03:51:46;13.60;;;6.85;;
66212;SDS011;53015;50.046;8.238;2023-03-01T03:54:11;10.85;;;7.15;;
66212;SDS011;53015;50.046;8.238;2023-03-01T03:56:37;14.70;;;7.43;;
66212;SDS011;53015;50.046;8.238;2023-03-01T03:59:02;12.43;;;6.72;;
66212;SDS011;53015;50.046;8.238;2023-03-01T04:01:28;11.85;;;7.18;;
66212;SDS011;53015;50.046;8.238;2023-03-01T04:03:53;12.95;;;7.05;;
66212;SDS011;53015;50.046;8.238;2023-03-01T04:06:19;12.45;;;7.18;;
66212;SDS011;53015;50.046;8.238;2023-03-01T04:08:45;13.88;;;7.28;;
66212;SDS011;53015;50.046;8.238;2023-03-01T04:11:11;9.70;;;6.32;;
66212;SDS011;53015;50.046;8.238;2023-03-01T04:13:37;14.57;;;7.10;;
66212;SDS011;53015;50.046;8.238;2023-03-01T04:16:03;13.02;;;7.22;;
66212;SDS011;53015;50.046;8.238;2023-03-01T04:18:29;12.35;;;7.32;;
66212;SDS011;53015;50.046;8.238;2023-03-01T04:20:54;12.38;;;6.88;;
66212;SDS011;53015;50.046;8.238;2023-03-01T04:23:20;14.75;;;8.00;;
66212;SDS011;53015;50.046;8.238;2023-03-01T04:25:47;13.05;;;7.07;;
66212;SDS011;53015;50.046;8.238;2023-03-01T04:28:14;12.60;;;7.05;;
66212;SDS011;53015;50.046;8.238;2023-03-01T04:30:39;14.43;;;7.13;;
66212;SDS011;53015;50.046;8.238;2023-03-01T04:33:05;12.07;;;7.28;;
66212;SDS011;53015;50.046;8.238;2023-03-01T04:35:36;12.25;;;7.63;;
66212;SDS011;53015;50.046;8.238;2023-03-01T04:38:02;13.48;;;7.30;;
66212;SDS011;53015;50.046;8.238;2023-03-01T04:40:27;15.50;;;7.70;;
66212;SDS011;53015;50.046;8.238;2023-03-01T04:42:54;14.02;;;7.82;;
66212;SDS011;53015;50.046;8.238;2023-03-01T04:45:19;12.23;;;7.25;;
66212;SDS011;53015;50.046;8.238;2023-03-01T04:47:45;12.15;;;7.15;;
66212;SDS011;53015;50.046;8.238;2023-03-01T04:50:12;14.73;;;7.40;;
66212;SDS011;53015;50.046;8.238;2023-03-01T04:52:40;19.45;;;9.00;;
66212;SDS011;53015;50.046;8.238;2023-03-01T04:55:06;14.18;;;7.80;;
66212;SDS011;53015;50.046;8.238;2023-03-01T04:57:32;12.10;;;7.57;;
66212;SDS011;53015;50.046;8.238;2023-03-01T05:00:00;13.10;;;7.55;;
66212;SDS011;53015;50.046;8.238;2023-03-01T05:02:26;15.30;;;7.47;;
66212;SDS011;53015;50.046;8.238;2023-03-01T05:04:51;17.27;;;8.20;;
66212;SDS011;53015;50.046;8.238;2023-03-01T05:07:17;13.30;;;7.22;;
66212;SDS011;53015;50.046;8.238;2023-03-01T05:09:43;16.00;;;8.45;;
66212;SDS011;53015;50.046;8.238;2023-03-01T05:12:08;12.75;;;7.63;;
66212;SDS011;53015;50.046;8.238;2023-03-01T05:14:34;15.30;;;7.97;;
66212;SDS011;53015;50.046;8.238;2023-03-01T05:17:00;17.05;;;8.02;;
66212;SDS011;53015;50.046;8.238;2023-03-01T05:19:25;13.55;;;7.78;;
66212;SDS011;53015;50.046;8.238;2023-03-01T05:21:51;15.32;;;7.97;;
66212;SDS011;53015;50.046;8.238;2023-03-01T05:24:16;16.58;;;7.88;;
66212;SDS011;53015;50.046;8.238;2023-03-01T05:26:42;14.93;;;8.10;;
66212;SDS011;53015;50.046;8.238;2023-03-01T05:29:07;14.35;;;7.78;;
66212;SDS011;53015;50.046;8.238;2023-03-01T05:31:33;15.65;;;7.60;;
66212;SDS011;53015;50.046;8.238;2023-03-01T05:33:59;15.38;;;8.18;;
66212;SDS011;53015;50.046;8.238;2023-03-01T05:36:24;16.35;;;8.23;;
66212;SDS011;53015;50.046;8.238;2023-03-01T05:38:50;12.93;;;7.53;;
66212;SDS011;53015;50.046;8.238;2023-03-01T05:41:15;13.88;;;7.05;;
66212;SDS011;53015;50.046;8.238;2023-03-01T05:43:41;14.50;;;7.78;;
66212;SDS011;53015;50.046;8.238;2023-03-01T05:46:06;14.25;;;8.00;;
66212;SDS011;53015;50.046;8.238;2023-03-01T05:48:32;15.20;;;8.68;;
66212;SDS011;53015;50.046;8.238;2023-03-01T05:50:59;15.88;;;8.20;;
66212;SDS011;53015;50.046;8.238;2023-03-01T05:53:25;16.95;;;8.32;;
66212;SDS011;53015;50.046;8.238;2023-03-01T05:55:51;15.02;;;8.05;;
66212;SDS011;53015;50.046;8.238;2023-03-01T05:58:17;17.35;;;7.93;;
66212;SDS011;53015;50.046;8.238;2023-03-01T06:00:44;15.73;;;8.02;;
66212;SDS011;53015;50.046;8.238;2023-03-01T06:03:11;14.48;;;8.27;;
66212;SDS011;53015;50.046;8.238;2023-03-01T06:05:38;15.35;;;8.30;;
66212;SDS011;53015;50.046;8.238;2023-03-01T06:08:04;15.45;;;8.13;;
66212;SDS011;53015;50.046;8.238;2023-03-01T06:10:30;16.88;;;8.25;;
66212;SDS011;53015;50.046;8.238;2023-03-01T06:12:56;15.70;;;7.55;;
66212;SDS011;53015;50.046;8.238;2023-03-01T06:15:22;15.57;;;8.20;;
66212;SDS011;53015;50.046;8.238;2023-03-01T06:17:48;14.15;;;7.47;;
66212;SDS011;53015;50.046;8.238;2023-03-01T06:20:15;16.63;;;8.35;;
66212;SDS011;53015;50.046;8.238;2023-03-01T06:22:42;17.27;;;8.40;;
66212;SDS011;53015;50.046;8.238;2023-03-01T06:25:09;12.43;;;8.07;;
66212;SDS011;53015;50.046;8.238;2023-03-01T06:27:35;13.15;;;7.78;;
66212;SDS011;53015;50.046;8.238;2023-03-01T06:30:04;14.30;;;8.40;;
66212;SDS011;53015;50.046;8.238;2023-03-01T06:32:31;18.02;;;7.88;;
66212;SDS011;53015;50.046;8.238;2023-03-01T06:34:56;16.48;;;7.78;;
66212;SDS011;53015;50.046;8.238;2023-03-01T06:37:22;18.65;;;8.20;;
66212;SDS011;53015;50.046;8.238;2023-03-01T06:39:48;16.20;;;8.43;;
66212;SDS011;53015;50.046;8.238;2023-03-01T06:42:14;15.85;;;7.63;;
66212;SDS011;53015;50.046;8.238;2023-03-01T06:44:39;16.55;;;8.32;;
66212;SDS011;53015;50.046;8.238;2023-03-01T06:47:05;19.70;;;8.23;;
66212;SDS011;53015;50.046;8.238;2023-03-01T06:49:31;11.80;;;7.38;;
66212;SDS011;53015;50.046;8.238;2023-03-01T06:51:56;16.02;;;8.07;;
66212;SDS011;53015;50.046;8.238;2023-03-01T06:54:22;14.77;;;7.88;;
66212;SDS011;53015;50.046;8.238;2023-03-01T06:56:48;13.93;;;6.90;;
66212;SDS011;53015;50.046;8.238;2023-03-01T06:59:14;13.98;;;7.82;;
66212;SDS011;53015;50.046;8.238;2023-03-01T07:01:40;19.45;;;7.75;;
66212;SDS011;53015;50.046;8.238;2023-03-01T07:04:06;14.05;;;7.32;;
66212;SDS011;53015;50.046;8.238;2023-03-01T07:06:31;12.30;;;7.40;;
66212;SDS011;53015;50.046;8.238;2023-03-01T07:08:57;11.90;;;6.40;;
66212;SDS011;53015;50.046;8.238;2023-03-01T07:11:22;11.30;;;6.25;;
66212;SDS011;53015;50.046;8.238;2023-03-01T07:13:49;12.98;;;7.15;;
66212;SDS011;53015;50.046;8.238;2023-03-01T07:16:15;10.57;;;6.85;;
66212;SDS011;53015;50.046;8.238;2023-03-01T07:18:41;10.52;;;6.72;;
66212;SDS011;53015;50.046;8.238;2023-03-01T07:21:06;10.85;;;6.38;;
66212;SDS011;53015;50.046;8.238;2023-03-01T07:23:32;11.98;;;6.07;;
66212;SDS011;53015;50.046;8.238;2023-03-01T07:25:58;12.43;;;6.70;;
66212;SDS011;53015;50.046;8.238;2023-03-01T07:28:24;10.50;;;5.85;;
66212;SDS011;53015;50.046;8.238;2023-03-01T07:30:50;12.55;;;7.07;;
66212;SDS011;53015;50.046;8.238;2023-03-01T07:33:16;18.42;;;6.65;;
66212;SDS011;53015;50.046;8.238;2023-03-01T07:35:42;12.75;;;7.05;;
66212;SDS011;53015;50.046;8.238;2023-03-01T07:38:08;10.75;;;6.20;;
66212;SDS011;53015;50.046;8.238;2023-03-01T07:40:34;15.43;;;6.95;;
66212;SDS011;53015;50.046;8.238;2023-03-01T07:42:59;11.65;;;5.90;;
66212;SDS011;53015;50.046;8.238;2023-03-01T07:45:25;9.82;;;6.25;;
66212;SDS011;53015;50.046;8.238;2023-03-01T07:47:51;27.02;;;6.60;;
66212;SDS011;53015;50.046;8.238;2023-03-01T07:50:17;13.70;;;6.88;;
66212;SDS011;53015;50.046;8.238;2023-03-01T07:52:44;11.98;;;6.22;;
66212;SDS011;53015;50.046;8.238;2023-03-01T07:55:10;13.68;;;6.32;;
66212;SDS011;53015;50.046;8.238;2023-03-01T07:57:35;11.65;;;6.47;;
66212;SDS011;53015;50.046;8.238;2023-03-01T08:00:01;11.52;;;6.05;;
66212;SDS011;53015;50.046;8.238;2023-03-01T08:02:26;10.45;;;6.13;;
66212;SDS011;53015;50.046;8.238;2023-03-01T08:04:52;15.75;;;6.82;;
66212;SDS011;53015;50.046;8.238;2023-03-01T08:07:18;14.55;;;6.28;;
66212;SDS011;53015;50.046;8.238;2023-03-01T08:09:43;13.23;;;7.25;;
66212;SDS011;53015;50.046;8.238;2023-03-01T08:12:09;10.77;;;6.18;;
66212;SDS011;53015;50.046;8.238;2023-03-01T08:14:34;12.10;;;5.97;;
66212;SDS011;53015;50.046;8.238;2023-03-01T08:17:00;13.27;;;6.60;;
66212;SDS011;53015;50.046;8.238;2023-03-01T08:19:26;13.93;;;6.55;;
66212;SDS011;53015;50.046;8.238;2023-03-01T08:21:51;11.60;;;6.65;;
66212;SDS011;53015;50.046;8.238;2023-03-01T08:24:17;11.13;;;6.25;;
66212;SDS011;53015;50.046;8.238;2023-03-01T08:26:43;11.27;;;6.60;;
66212;SDS011;53015;50.046;8.238;2023-03-01T08:29:09;10.55;;;6.03;;
66212;SDS011;53015;50.046;8.238;2023-03-01T08:31:35;9.93;;;6.07;;
66212;SDS011;53015;50.046;8.238;2023-03-01T08:34:02;12.13;;;6.63;;
66212;SDS011;53015;50.046;8.238;2023-03-01T08:36:29;14.18;;;7.10;;
66212;SDS011;53015;50.046;8.238;2023-03-01T08:38:56;14.60;;;6.85;;
66212;SDS011;53015;50.046;8.238;2023-03-01T08:41:22;11.05;;;6.63;;
66212;SDS011;53015;50.046;8.238;2023-03-01T08:43:48;12.02;;;6.57;;
66212;SDS011;53015;50.046;8.238;2023-03-01T08:46:14;13.02;;;6.50;;
66212;SDS011;53015;50.046;8.238;2023-03-01T08:48:40;15.93;;;7.25;;
66212;SDS011;53015;50.046;8.238;2023-03-01T08:51:09;12.65;;;6.65;;
66212;SDS011;53015;50.046;8.238;2023-03-01T08:53:36;16.13;;;6.03;;
66212;SDS011;53015;50.046;8.238;2023-03-01T08:56:02;12.18;;;6.88;;
66212;SDS011;53015;50.046;8.238;2023-03-01T08:58:28;11.18;;;6.60;;
66212;SDS011;53015;50.046;8.238;2023-03-01T09:00:53;13.93;;;6.63;;
66212;SDS011;53015;50.046;8.238;2023-03-01T09:03:19;14.13;;;7.38;;
66212;SDS011;53015;50.046;8.238;2023-03-01T09:05:44;16.67;;;7.55;;
66212;SDS011;53015;50.046;8.238;2023-03-01T09:08:10;11.63;;;7.15;;
66212;SDS011;53015;50.046;8.238;2023-03-01T09:10:37;14.32;;;6.78;;
66212;SDS011;53015;50.046;8.238;2023-03-01T09:13:02;12.98;;;7.13;;
66212;SDS011;53015;50.046;8.238;2023-03-01T09:15:29;15.32;;;7.47;;
66212;SDS011;53015;50.046;8.238;2023-03-01T09:17:54;12.32;;;6.75;;
66212;SDS011;53015;50.046;8.238;2023-03-01T09:20:20;13.55;;;6.65;;
66212;SDS011;53015;50.046;8.238;2023-03-01T09:22:45;14.43;;;7.45;;
66212;SDS011;53015;50.046;8.238;2023-03-01T09:25:11;13.43;;;8.15;;
66212;SDS011;53015;50.046;8.238;2023-03-01T09:27:36;13.88;;;7.80;;
66212;SDS011;53015;50.046;8.238;2023-03-01T09:30:02;12.00;;;6.13;;
66212;SDS011;53015;50.046;8.238;2023-03-01T09:32:30;13.35;;;7.07;;
66212;SDS011;53015;50.046;8.238;2023-03-01T09:34:56;11.82;;;7.22;;
66212;SDS011;53015;50.046;8.238;2023-03-01T09:37:21;13.35;;;7.15;;
66212;SDS011;53015;50.046;8.238;2023-03-01T09:39:47;11.10;;;7.28;;
66212;SDS011;53015;50.046;8.238;2023-03-01T09:42:12;14.20;;;7.50;;
66212;SDS011;53015;50.046;8.238;2023-03-01T09:44:40;14.10;;;7.70;;
66212;SDS011;53015;50.046;8.238;2023-03-01T09:47:12;12.93;;;7.07;;
66212;SDS011;53015;50.046;8.238;2023-03-01T09:49:43;13.55;;;7.40;;
66212;SDS011;53015;50.046;8.238;2023-03-01T09:52:23;12.77;;;7.70;;
66212;SDS011;53015;50.046;8.238;2023-03-01T09:54:54;10.65;;;6.72;;
66212;SDS011;53015;50.046;8.238;2023-03-01T09:57:24;13.23;;;7.15;;
66212;SDS011;53015;50.046;8.238;2023-03-01T10:00:00;12.98;;;6.85;;
66212;SDS011;53015;50.046;8.238;2023-03-01T10:02:37;12.95;;;7.10;;
66212;SDS011;53015;50.046;8.238;2023-03-01T10:05:09;12.52;;;7.40;;
66212;SDS011;53015;50.046;8.238;2023-03-01T10:07:45;12.90;;;7.57;;
66212;SDS011;53015;50.046;8.238;2023-03-01T10:10:23;13.95;;;7.00;;
66212;SDS011;53015;50.046;8.238;2023-03-01T10:12:52;15.53;;;7.63;;
66212;SDS011;53015;50.046;8.238;2023-03-01T10:15:19;15.18;;;7.43;;
66212;SDS011;53015;50.046;8.238;2023-03-01T10:17:55;12.82;;;7.97;;
66212;SDS011;53015;50.046;8.238;2023-03-01T10:20:28;12.68;;;7.40;;
66212;SDS011;53015;50.046;8.238;2023-03-01T10:22:58;13.38;;;7.20;;
66212;SDS011;53015;50.046;8.238;2023-03-01T10:25:31;12.70;;;7.65;;
66212;SDS011;53015;50.046;8.238;2023-03-01T10:30:38;15.77;;;8.18;;
66212;SDS011;53015;50.046;8.238;2023-03-01T10:33:06;13.07;;;7.80;;
66212;SDS011;53015;50.046;8.238;2023-03-01T10:35:43;13.32;;;7.47;;
66212;SDS011;53015;50.046;8.238;2023-03-01T10:38:09;17.63;;;7.93;;
66212;SDS011;53015;50.046;8.238;2023-03-01T10:40:49;11.50;;;6.60;;
66212;SDS011;53015;50.046;8.238;2023-03-01T10:43:16;16.65;;;7.88;;
66212;SDS011;53015;50.046;8.238;2023-03-01T10:45:42;15.90;;;7.57;;
66212;SDS011;53015;50.046;8.238;2023-03-01T10:48:12;12.65;;;7.55;;
66212;SDS011;53015;50.046;8.238;2023-03-01T10:50:40;11.40;;;6.80;;
66212;SDS011;53015;50.046;8.238;2023-03-01T10:53:16;14.23;;;7.88;;
66212;SDS011;53015;50.046;8.238;2023-03-01T10:55:46;13.80;;;7.43;;
66212;SDS011;53015;50.046;8.238;2023-03-01T10:58:21;13.35;;;7.22;;
66212;SDS011;53015;50.046;8.238;2023-03-01T11:00:48;14.23;;;7.75;;
66212;SDS011;53015;50.046;8.238;2023-03-01T11:03:16;13.45;;;7.90;;
66212;SDS011;53015;50.046;8.238;2023-03-01T11:05:52;13.82;;;7.47;;
66212;SDS011;53015;50.046;8.238;2023-03-01T11:08:29;12.57;;;6.93;;
66212;SDS011;53015;50.046;8.238;2023-03-01T11:13:52;12.15;;;6.90;;
66212;SDS011;53015;50.046;8.238;2023-03-01T11:19:18;10.75;;;6.47;;
66212;SDS011;53015;50.046;8.238;2023-03-01T11:21:54;13.07;;;6.68;;
66212;SDS011;53015;50.046;8.238;2023-03-01T11:24:26;13.10;;;7.20;;
66212;SDS011;53015;50.046;8.238;2023-03-01T11:26:58;11.30;;;7.18;;
66212;SDS011;53015;50.046;8.238;2023-03-01T11:29:29;10.80;;;6.32;;
66212;SDS011;53015;50.046;8.238;2023-03-01T11:31:59;10.90;;;6.30;;
66212;SDS011;53015;50.046;8.238;2023-03-01T11:34:34;14.13;;;6.82;;
66212;SDS011;53015;50.046;8.238;2023-03-01T11:37:09;13.32;;;6.43;;
66212;SDS011;53015;50.046;8.238;2023-03-01T11:39:43;11.88;;;6.90;;
66212;SDS011;53015;50.046;8.238;2023-03-01T11:42:17;9.98;;;6.20;;
66212;SDS011;53015;50.046;8.238;2023-03-01T11:44:45;10.00;;;6.18;;
66212;SDS011;53015;50.046;8.238;2023-03-01T11:47:25;12.85;;;6.85;;
66212;SDS011;53015;50.046;8.238;2023-03-01T11:52:44;10.82;;;6.22;;
66212;SDS011;53015;50.046;8.238;2023-03-01T11:55:23;12.32;;;6.25;;
66212;SDS011;53015;50.046;8.238;2023-03-01T11:58:11;9.45;;;5.97;;
66212;SDS011;53015;50.046;8.238;2023-03-01T12:03:38;8.45;;;5.35;;
66212;SDS011;53015;50.046;8.238;2023-03-01T12:06:27;9.32;;;5.68;;
66212;SDS011;53015;50.046;8.238;2023-03-01T12:09:13;9.10;;;5.88;;
66212;SDS011;53015;50.046;8.238;2023-03-01T12:11:55;11.80;;;5.38;;
66212;SDS011;53015;50.046;8.238;2023-03-01T12:14:50;9.95;;;5.88;;
66212;SDS011;53015;50.046;8.238;2023-03-01T12:17:35;14.13;;;5.70;;
66212;SDS011;53015;50.046;8.238;2023-03-01T12:20:20;10.65;;;5.40;;
66212;SDS011;53015;50.046;8.238;2023-03-01T12:22:55;11.55;;;4.63;;
66212;SDS011;53015;50.046;8.238;2023-03-01T12:25:33;9.25;;;4.88;;
66212;SDS011;53015;50.046;8.238;2023-03-01T12:28:10;9.02;;;5.10;;
66212;SDS011;53015;50.046;8.238;2023-03-01T12:30:52;9.30;;;5.37;;
66212;SDS011;53015;50.046;8.238;2023-03-01T12:33:45;9.68;;;5.18;;
66212;SDS011;53015;50.046;8.238;2023-03-01T12:36:29;8.70;;;4.88;;
66212;SDS011;53015;50.046;8.238;2023-03-01T12:39:09;6.93;;;4.50;;
66212;SDS011;53015;50.046;8.238;2023-03-01T12:41:51;7.57;;;4.13;;
66212;SDS011;53015;50.046;8.238;2023-03-01T12:44:40;7.38;;;4.50;;
66212;SDS011;53015;50.046;8.238;2023-03-01T12:47:21;8.55;;;5.15;;
66212;SDS011;53015;50.046;8.238;2023-03-01T12:49:56;8.65;;;4.72;;
66212;SDS011;53015;50.046;8.238;2023-03-01T12:52:28;10.77;;;4.30;;
66212;SDS011;53015;50.046;8.238;2023-03-01T12:55:01;6.32;;;4.22;;
66212;SDS011;53015;50.046;8.238;2023-03-01T12:57:29;7.68;;;4.07;;
66212;SDS011;53015;50.046;8.238;2023-03-01T13:00:02;8.02;;;4.50;;
66212;SDS011;53015;50.046;8.238;2023-03-01T13:02:36;7.00;;;4.15;;
66212;SDS011;53015;50.046;8.238;2023-03-01T13:05:15;10.45;;;4.40;;
66212;SDS011;53015;50.046;8.238;2023-03-01T13:07:53;7.85;;;4.28;;
66212;SDS011;53015;50.046;8.238;2023-03-01T13:10:26;6.95;;;4.13;;
66212;SDS011;53015;50.046;8.238;2023-03-01T13:13:01;9.23;;;4.68;;
66212;SDS011;53015;50.046;8.238;2023-03-01T13:15:37;6.72;;;4.40;;
66212;SDS011;53015;50.046;8.238;2023-03-01T13:18:04;7.25;;;4.40;;
66212;SDS011;53015;50.046;8.238;2023-03-01T13:20:52;14.32;;;4.55;;
66212;SDS011;53015;50.046;8.238;2023-03-01T13:23:24;7.57;;;4.60;;
66212;SDS011;53015;50.046;8.238;2023-03-01T13:26:08;8.95;;;4.53;;
66212;SDS011;53015;50.046;8.238;2023-03-01T13:34:40;7.50;;;4.57;;
66212;SDS011;53015;50.046;8.238;2023-03-01T13:37:08;6.97;;;4.45;;
66212;SDS011;53015;50.046;8.238;2023-03-01T13:39:38;7.18;;;4.32;;
66212;SDS011;53015;50.046;8.238;2023-03-01T13:42:25;7.40;;;4.22;;
66212;SDS011;53015;50.046;8.238;2023-03-01T13:45:03;6.47;;;3.95;;
66212;SDS011;53015;50.046;8.238;2023-03-01T13:47:38;7.68;;;4.10;;
66212;SDS011;53015;50.046;8.238;2023-03-01T13:50:04;8.02;;;4.60;;
66212;SDS011;53015;50.046;8.238;2023-03-01T13:52:34;8.18;;;4.35;;
66212;SDS011;53015;50.046;8.238;2023-03-01T13:55:03;9.07;;;4.32;;
66212;SDS011;53015;50.046;8.238;2023-03-01T13:57:32;7.97;;;4.18;;
66212;SDS011;53015;50.046;8.238;2023-03-01T13:59:59;6.43;;;4.25;;
66212;SDS011;53015;50.046;8.238;2023-03-01T14:02:24;7.18;;;4.10;;
66212;SDS011;53015;50.046;8.238;2023-03-01T14:04:56;8.82;;;4.38;;
66212;SDS011;53015;50.046;8.238;2023-03-01T14:07:23;5.95;;;4.18;;
66212;SDS011;53015;50.046;8.238;2023-03-01T14:09:51;6.35;;;4.55;;
66212;SDS011;53015;50.046;8.238;2023-03-01T14:12:21;5.97;;;4.22;;
66212;SDS011;53015;50.046;8.238;2023-03-01T14:14:56;7.35;;;4.18;;
66212;SDS011;53015;50.046;8.238;2023-03-01T14:20:19;5.72;;;3.80;;
66212;SDS011;53015;50.046;8.238;2023-03-01T14:22:46;8.40;;;4.93;;
66212;SDS011;53015;50.046;8.238;2023-03-01T14:25:18;6.90;;;4.25;;
66212;SDS011;53015;50.046;8.238;2023-03-01T14:27:50;6.47;;;4.20;;
66212;SDS011;53015;50.046;8.238;2023-03-01T14:30:19;7.35;;;3.92;;
66212;SDS011;53015;50.046;8.238;2023-03-01T14:32:51;7.85;;;4.03;;
66212;SDS011;53015;50.046;8.238;2023-03-01T14:35:20;8.15;;;4.20;;
66212;SDS011;53015;50.046;8.238;2023-03-01T14:37:47;9.73;;;4.38;;
66212;SDS011;53015;50.046;8.238;2023-03-01T14:40:20;6.43;;;4.10;;
66212;SDS011;53015;50.046;8.238;2023-03-01T14:42:50;6.50;;;4.07;;
66212;SDS011;53015;50.046;8.238;2023-03-01T14:45:17;6.80;;;4.07;;
66212;SDS011;53015;50.046;8.238;2023-03-01T14:47:43;8.52;;;4.97;;
66212;SDS011;53015;50.046;8.238;2023-03-01T14:50:19;10.70;;;4.22;;
66212;SDS011;53015;50.046;8.238;2023-03-01T14:52:48;7.43;;;4.68;;
66212;SDS011;53015;50.046;8.238;2023-03-01T14:55:19;9.10;;;4.22;;
66212;SDS011;53015;50.046;8.238;2023-03-01T14:57:46;8.65;;;4.55;;
66212;SDS011;53015;50.046;8.238;2023-03-01T15:00:16;8.27;;;4.22;;
66212;SDS011;53015;50.046;8.238;2023-03-01T15:02:44;6.20;;;4.13;;
66212;SDS011;53015;50.046;8.238;2023-03-01T15:05:13;11.45;;;4.78;;
66212;SDS011;53015;50.046;8.238;2023-03-01T15:07:41;6.78;;;4.05;;
66212;SDS011;53015;50.046;8.238;2023-03-01T15:10:14;9.23;;;4.65;;